sensor_id;sensor_type;location;lat;lon;timestamp;pressure;altitude;pressure_sealevel;temperature;humidity
1776;BME280;885;42.626;23.200;2022-07-12T00:01:18;168321.44;;;11.65;98.13
1776;BME280;885;42.626;23.200;2022-07-12T00:03:46;168282.81;;;11.51;98.42
1776;BME280;885;42.626;23.200;2022-07-12T00:06:13;168285.59;;;11.52;98.25
1776;BME280;885;42.626;23.200;2022-07-12T00:08:40;168234.47;;;11.33;99.08
1776;BME280;885;42.626;23.200;2022-07-12T00:11:07;168252.44;;;11.40;99.65
1776;BME280;885;42.626;23.200;2022-07-12T00:13:34;168252.44;;;11.40;99.65
1776;BME280;885;42.626;23.200;2022-07-12T00:16:01;168180.69;;;11.13;100.00
1776;BME280;885;42.626;23.200;2022-07-12T00:18:28;168216.59;;;11.27;99.71
1776;BME280;885;42.626;23.200;2022-07-12T00:20:56;168260.72;;;11.43;99.67
1776;BME280;885;42.626;23.200;2022-07-12T00:23:23;168240.06;;;11.35;99.81
1776;BME280;885;42.626;23.200;2022-07-12T00:25:50;168169.66;;;11.09;100.00
1776;BME280;885;42.626;23.200;2022-07-12T00:28:16;168164.16;;;11.07;100.00
1776;BME280;885;42.626;23.200;2022-07-12T00:30:43;168209.69;;;11.24;100.00
1776;BME280;885;42.626;23.200;2022-07-12T00:33:10;168209.69;;;11.24;100.00
1776;BME280;885;42.626;23.200;2022-07-12T00:35:37;168186.22;;;11.15;99.90
1776;BME280;885;42.626;23.200;2022-07-12T00:38:05;168176.59;;;11.12;100.00
1776;BME280;885;42.626;23.200;2022-07-12T00:40:32;168177.91;;;11.12;100.00
1776;BME280;885;42.626;23.200;2022-07-12T00:42:58;168188.94;;;11.16;100.00
1776;BME280;885;42.626;23.200;2022-07-12T00:45:25;168191.72;;;11.17;100.00
1776;BME280;885;42.626;23.200;2022-07-12T00:47:52;168180.69;;;11.13;99.76
1776;BME280;885;42.626;23.200;2022-07-12T00:50:21;168188.94;;;11.16;99.66
1776;BME280;885;42.626;23.200;2022-07-12T00:52:50;168150.34;;;11.02;99.11
1776;BME280;885;42.626;23.200;2022-07-12T00:55:19;168157.25;;;11.05;99.06
1776;BME280;885;42.626;23.200;2022-07-12T00:57:47;168198.66;;;11.20;98.56
1776;BME280;885;42.626;23.200;2022-07-12T01:00:15;168198.66;;;11.20;98.38
1776;BME280;885;42.626;23.200;2022-07-12T01:02:44;168180.69;;;11.13;99.21
1776;BME280;885;42.626;23.200;2022-07-12T01:05:11;168162.75;;;11.07;99.85
1776;BME280;885;42.626;23.200;2022-07-12T01:07:37;168122.75;;;10.92;100.00
1776;BME280;885;42.626;23.200;2022-07-12T01:10:06;168150.34;;;11.02;100.00
1776;BME280;885;42.626;23.200;2022-07-12T01:12:34;168180.69;;;11.13;100.00
1776;BME280;885;42.626;23.200;2022-07-12T01:15:03;168201.38;;;11.21;100.00
1776;BME280;885;42.626;23.200;2022-07-12T01:17:31;168183.44;;;11.14;100.00
1776;BME280;885;42.626;23.200;2022-07-12T01:19:58;168148.94;;;11.02;100.00
1776;BME280;885;42.626;23.200;2022-07-12T01:22:27;168154.44;;;11.04;100.00
1776;BME280;885;42.626;23.200;2022-07-12T01:24:56;168168.28;;;11.09;100.00
1776;BME280;885;42.626;23.200;2022-07-12T01:27:22;168162.75;;;11.07;100.00
1776;BME280;885;42.626;23.200;2022-07-12T01:29:49;168031.72;;;10.59;100.00
1776;BME280;885;42.626;23.200;2022-07-12T01:32:16;168097.91;;;10.83;100.00
1776;BME280;885;42.626;23.200;2022-07-12T01:34:56;168103.41;;;10.85;100.00
1776;BME280;885;42.626;23.200;2022-07-12T01:37:24;168107.59;;;10.87;100.00
1776;BME280;885;42.626;23.200;2022-07-12T01:39:53;168118.63;;;10.91;100.00
1776;BME280;885;42.626;23.200;2022-07-12T01:42:23;168059.28;;;10.69;100.00
1776;BME280;885;42.626;23.200;2022-07-12T01:44:51;168086.88;;;10.79;100.00
1776;BME280;885;42.626;23.200;2022-07-12T01:47:18;168111.72;;;10.88;100.00
1776;BME280;885;42.626;23.200;2022-07-12T01:49:45;168093.78;;;10.82;100.00
1776;BME280;885;42.626;23.200;2022-07-12T01:52:13;168097.91;;;10.83;100.00
1776;BME280;885;42.626;23.200;2022-07-12T01:54:40;168064.81;;;10.71;100.00
1776;BME280;885;42.626;23.200;2022-07-12T01:57:08;168062.06;;;10.70;100.00
1776;BME280;885;42.626;23.200;2022-07-12T01:59:36;168081.34;;;10.77;100.00
1776;BME280;885;42.626;23.200;2022-07-12T02:02:03;168045.47;;;10.64;100.00
1776;BME280;885;42.626;23.200;2022-07-12T02:04:30;168066.19;;;10.72;100.00
1776;BME280;885;42.626;23.200;2022-07-12T02:06:57;168089.66;;;10.80;100.00
1776;BME280;885;42.626;23.200;2022-07-12T02:09:24;168110.31;;;10.88;100.00
1776;BME280;885;42.626;23.200;2022-07-12T02:11:50;168064.81;;;10.71;100.00
1776;BME280;885;42.626;23.200;2022-07-12T02:14:17;168085.47;;;10.79;100.00
1776;BME280;885;42.626;23.200;2022-07-12T02:16:46;168089.66;;;10.80;100.00
1776;BME280;885;42.626;23.200;2022-07-12T02:19:13;168059.28;;;10.69;100.00
1776;BME280;885;42.626;23.200;2022-07-12T02:21:40;168023.41;;;10.56;100.00
1776;BME280;885;42.626;23.200;2022-07-12T02:24:08;168042.75;;;10.63;100.00
1776;BME280;885;42.626;23.200;2022-07-12T02:26:35;168048.25;;;10.65;100.00
1776;BME280;885;42.626;23.200;2022-07-12T02:29:03;168056.50;;;10.68;100.00
1776;BME280;885;42.626;23.200;2022-07-12T02:31:31;168053.78;;;10.67;100.00
1776;BME280;885;42.626;23.200;2022-07-12T02:33:59;168023.41;;;10.56;100.00
1776;BME280;885;42.626;23.200;2022-07-12T02:36:26;168049.66;;;10.66;100.00
1776;BME280;885;42.626;23.200;2022-07-12T02:38:53;168031.72;;;10.59;100.00
1776;BME280;885;42.626;23.200;2022-07-12T02:41:20;168012.41;;;10.52;100.00
1776;BME280;885;42.626;23.200;2022-07-12T02:43:47;168023.41;;;10.56;100.00
1776;BME280;885;42.626;23.200;2022-07-12T02:46:14;167959.97;;;10.33;100.00
1776;BME280;885;42.626;23.200;2022-07-12T02:48:42;167947.56;;;10.28;100.00
1776;BME280;885;42.626;23.200;2022-07-12T02:51:10;167990.34;;;10.44;100.00
1776;BME280;885;42.626;23.200;2022-07-12T02:53:37;167966.88;;;10.35;100.00
1776;BME280;885;42.626;23.200;2022-07-12T02:56:05;167913.09;;;10.16;100.00
1776;BME280;885;42.626;23.200;2022-07-12T02:58:32;167929.69;;;10.22;100.00
1776;BME280;885;42.626;23.200;2022-07-12T03:01:00;167962.75;;;10.34;100.00
1776;BME280;885;42.626;23.200;2022-07-12T03:03:27;168006.88;;;10.50;100.00
1776;BME280;885;42.626;23.200;2022-07-12T03:05:54;168033.13;;;10.60;100.00
1776;BME280;885;42.626;23.200;2022-07-12T03:08:22;168037.22;;;10.61;100.00
1776;BME280;885;42.626;23.200;2022-07-12T03:10:49;168022.03;;;10.56;100.00
1776;BME280;885;42.626;23.200;2022-07-12T03:13:16;168020.69;;;10.55;100.00
1776;BME280;885;42.626;23.200;2022-07-12T03:15:43;168064.81;;;10.71;100.00
1776;BME280;885;42.626;23.200;2022-07-12T03:18:11;168074.44;;;10.75;100.00
1776;BME280;885;42.626;23.200;2022-07-12T03:20:38;168092.38;;;10.81;100.00
1776;BME280;885;42.626;23.200;2022-07-12T03:23:05;168121.34;;;10.92;100.00
1776;BME280;885;42.626;23.200;2022-07-12T03:25:33;168119.97;;;10.91;100.00
1776;BME280;885;42.626;23.200;2022-07-12T03:28:00;168125.47;;;10.93;100.00
1776;BME280;885;42.626;23.200;2022-07-12T03:30:27;168162.75;;;11.07;100.00
1776;BME280;885;42.626;23.200;2022-07-12T03:32:54;168155.84;;;11.04;100.00
1776;BME280;885;42.626;23.200;2022-07-12T03:35:21;168158.63;;;11.05;100.00
1776;BME280;885;42.626;23.200;2022-07-12T03:37:50;168162.75;;;11.07;100.00
1776;BME280;885;42.626;23.200;2022-07-12T03:40:18;168171.06;;;11.10;100.00
1776;BME280;885;42.626;23.200;2022-07-12T03:42:47;168147.59;;;11.01;100.00
1776;BME280;885;42.626;23.200;2022-07-12T03:45:14;168129.66;;;10.95;100.00
1776;BME280;885;42.626;23.200;2022-07-12T03:47:41;168154.44;;;11.04;100.00
1776;BME280;885;42.626;23.200;2022-07-12T03:50:10;168147.59;;;11.01;100.00
1776;BME280;885;42.626;23.200;2022-07-12T03:52:37;168161.38;;;11.06;100.00
1776;BME280;885;42.626;23.200;2022-07-12T03:55:06;168115.84;;;10.90;100.00
1776;BME280;885;42.626;23.200;2022-07-12T03:57:33;168107.59;;;10.87;100.00
1776;BME280;885;42.626;23.200;2022-07-12T04:00:03;168129.66;;;10.95;100.00
1776;BME280;885;42.626;23.200;2022-07-12T04:02:30;168153.13;;;11.03;100.00
1776;BME280;885;42.626;23.200;2022-07-12T04:04:57;168165.53;;;11.08;100.00
1776;BME280;885;42.626;23.200;2022-07-12T04:07:24;168173.78;;;11.11;100.00
1776;BME280;885;42.626;23.200;2022-07-12T04:09:51;168172.41;;;11.10;100.00
1776;BME280;885;42.626;23.200;2022-07-12T04:12:18;168171.06;;;11.10;100.00
1776;BME280;885;42.626;23.200;2022-07-12T04:14:45;168194.47;;;11.18;100.00
1776;BME280;885;42.626;23.200;2022-07-12T04:17:13;168191.72;;;11.17;100.00
1776;BME280;885;42.626;23.200;2022-07-12T04:19:40;168188.94;;;11.16;100.00
1776;BME280;885;42.626;23.200;2022-07-12T04:22:06;168216.59;;;11.27;100.00
1776;BME280;885;42.626;23.200;2022-07-12T04:24:33;168223.44;;;11.29;100.00
1776;BME280;885;42.626;23.200;2022-07-12T04:27:02;168227.63;;;11.31;100.00
1776;BME280;885;42.626;23.200;2022-07-12T04:29:29;168288.31;;;11.53;100.00
1776;BME280;885;42.626;23.200;2022-07-12T04:31:56;168324.22;;;11.66;100.00
1776;BME280;885;42.626;23.200;2022-07-12T04:34:24;168379.47;;;11.86;100.00
1776;BME280;885;42.626;23.200;2022-07-12T04:36:51;168400.22;;;11.93;100.00
1776;BME280;885;42.626;23.200;2022-07-12T04:39:18;168378.13;;;11.85;100.00
1776;BME280;885;42.626;23.200;2022-07-12T04:41:45;168387.78;;;11.89;100.00
1776;BME280;885;42.626;23.200;2022-07-12T04:44:11;168412.66;;;11.98;100.00
1776;BME280;885;42.626;23.200;2022-07-12T04:46:38;168426.44;;;12.03;100.00
1776;BME280;885;42.626;23.200;2022-07-12T04:49:05;168416.78;;;12.00;100.00
1776;BME280;885;42.626;23.200;2022-07-12T04:51:33;168437.47;;;12.07;100.00
1776;BME280;885;42.626;23.200;2022-07-12T04:54:00;168456.81;;;12.14;100.00
1776;BME280;885;42.626;23.200;2022-07-12T04:56:27;168474.78;;;12.21;100.00
1776;BME280;885;42.626;23.200;2022-07-12T04:58:54;168451.28;;;12.12;100.00
1776;BME280;885;42.626;23.200;2022-07-12T05:01:20;168473.38;;;12.20;100.00
1776;BME280;885;42.626;23.200;2022-07-12T05:03:47;168487.22;;;12.25;100.00
1776;BME280;885;42.626;23.200;2022-07-12T05:06:14;168492.75;;;12.27;100.00
1776;BME280;885;42.626;23.200;2022-07-12T05:08:42;168487.22;;;12.25;100.00
1776;BME280;885;42.626;23.200;2022-07-12T05:11:09;168488.56;;;12.26;100.00
1776;BME280;885;42.626;23.200;2022-07-12T05:13:36;168536.91;;;12.43;100.00
1776;BME280;885;42.626;23.200;2022-07-12T05:16:03;168553.47;;;12.49;100.00
1776;BME280;885;42.626;23.200;2022-07-12T05:18:30;168563.13;;;12.53;100.00
1776;BME280;885;42.626;23.200;2022-07-12T05:20:56;168600.44;;;12.66;100.00
1776;BME280;885;42.626;23.200;2022-07-12T05:23:24;168647.44;;;12.84;100.00
1776;BME280;885;42.626;23.200;2022-07-12T05:25:52;168664.00;;;12.90;100.00
1776;BME280;885;42.626;23.200;2022-07-12T05:28:19;168702.69;;;13.04;100.00
1776;BME280;885;42.626;23.200;2022-07-12T05:30:45;168711.03;;;13.07;100.00
1776;BME280;885;42.626;23.200;2022-07-12T05:33:12;168724.81;;;13.12;100.00
1776;BME280;885;42.626;23.200;2022-07-12T05:35:39;168715.16;;;13.08;100.00
1776;BME280;885;42.626;23.200;2022-07-12T05:38:06;168728.97;;;13.13;100.00
1776;BME280;885;42.626;23.200;2022-07-12T05:40:33;168746.94;;;13.20;100.00
1776;BME280;885;42.626;23.200;2022-07-12T05:43:01;168780.13;;;13.32;100.00
1776;BME280;885;42.626;23.200;2022-07-12T05:45:28;168803.63;;;13.40;100.00
1776;BME280;885;42.626;23.200;2022-07-12T05:47:55;168851.97;;;13.58;99.94
1776;BME280;885;42.626;23.200;2022-07-12T05:50:22;168879.63;;;13.68;99.63
1776;BME280;885;42.626;23.200;2022-07-12T05:52:49;168915.56;;;13.81;98.73
1776;BME280;885;42.626;23.200;2022-07-12T05:55:33;168908.66;;;13.79;93.39
1776;BME280;885;42.626;23.200;2022-07-12T05:57:59;168987.50;;;14.07;93.42
1776;BME280;885;42.626;23.200;2022-07-12T06:00:29;169046.97;;;14.29;93.69
1776;BME280;885;42.626;23.200;2022-07-12T06:02:57;169135.53;;;14.61;93.26
1776;BME280;885;42.626;23.200;2022-07-12T06:05:24;169261.41;;;15.07;87.31
1776;BME280;885;42.626;23.200;2022-07-12T06:07:51;169459.41;;;15.79;77.73
1776;BME280;885;42.626;23.200;2022-07-12T06:10:17;169650.47;;;16.48;71.24
1776;BME280;885;42.626;23.200;2022-07-12T06:12:44;169852.81;;;17.22;73.62
1776;BME280;885;42.626;23.200;2022-07-12T06:15:11;169956.81;;;17.60;68.56
1776;BME280;885;42.626;23.200;2022-07-12T06:17:39;170080.25;;;18.04;69.15
1776;BME280;885;42.626;23.200;2022-07-12T06:20:07;169998.44;;;17.75;63.15
1776;BME280;885;42.626;23.200;2022-07-12T06:22:34;170015.06;;;17.81;64.83
1776;BME280;885;42.626;23.200;2022-07-12T06:25:00;170042.84;;;17.91;64.56
1776;BME280;885;42.626;23.200;2022-07-12T06:27:27;169958.22;;;17.60;61.65
1776;BME280;885;42.626;23.200;2022-07-12T06:29:54;169976.25;;;17.67;65.24
1776;BME280;885;42.626;23.200;2022-07-12T06:32:21;169951.28;;;17.58;66.23
1776;BME280;885;42.626;23.200;2022-07-12T06:34:49;169938.84;;;17.53;63.02
1776;BME280;885;42.626;23.200;2022-07-12T06:37:15;169991.47;;;17.72;64.41
1776;BME280;885;42.626;23.200;2022-07-12T06:39:42;170001.22;;;17.76;62.01
1776;BME280;885;42.626;23.200;2022-07-12T06:42:09;170106.56;;;18.14;59.58
1776;BME280;885;42.626;23.200;2022-07-12T06:44:36;170447.94;;;19.38;57.27
1776;BME280;885;42.626;23.200;2022-07-12T06:47:03;170828.50;;;20.76;56.23
1776;BME280;885;42.626;23.200;2022-07-12T06:49:30;170636.78;;;20.06;52.76
1776;BME280;885;42.626;23.200;2022-07-12T06:52:03;170528.44;;;19.67;55.22
1776;BME280;885;42.626;23.200;2022-07-12T06:54:31;170568.72;;;19.81;55.49
1776;BME280;885;42.626;23.200;2022-07-12T06:56:58;170517.34;;;19.63;55.00
1776;BME280;885;42.626;23.200;2022-07-12T06:59:25;170559.00;;;19.78;55.16
1776;BME280;885;42.626;23.200;2022-07-12T07:01:52;170549.31;;;19.74;55.39
1776;BME280;885;42.626;23.200;2022-07-12T07:04:21;170461.84;;;19.43;53.57
1776;BME280;885;42.626;23.200;2022-07-12T07:06:47;170472.94;;;19.47;57.17
1776;BME280;885;42.626;23.200;2022-07-12T07:09:16;170484.06;;;19.51;57.88
1776;BME280;885;42.626;23.200;2022-07-12T07:11:43;170513.19;;;19.61;58.10
1776;BME280;885;42.626;23.200;2022-07-12T07:14:09;170425.69;;;19.30;57.12
1776;BME280;885;42.626;23.200;2022-07-12T07:16:36;170227.31;;;18.58;61.46
1776;BME280;885;42.626;23.200;2022-07-12T07:19:03;170192.66;;;18.45;61.88
1776;BME280;885;42.626;23.200;2022-07-12T07:21:31;170170.34;;;18.37;61.34
1776;BME280;885;42.626;23.200;2022-07-12T07:23:58;170109.34;;;18.15;62.57
1776;BME280;885;42.626;23.200;2022-07-12T07:26:26;169948.53;;;17.57;64.90
1776;BME280;885;42.626;23.200;2022-07-12T07:28:53;169991.47;;;17.72;66.40
1776;BME280;885;42.626;23.200;2022-07-12T07:31:37;170095.47;;;18.10;68.21
1776;BME280;885;42.626;23.200;2022-07-12T07:34:05;170164.81;;;18.35;61.90
1776;BME280;885;42.626;23.200;2022-07-12T07:36:32;170214.84;;;18.53;60.15
1776;BME280;885;42.626;23.200;2022-07-12T07:44:26;170067.75;;;18.00;61.43
1776;BME280;885;42.626;23.200;2022-07-12T07:46:53;169980.41;;;17.68;62.02
1776;BME280;885;42.626;23.200;2022-07-12T07:49:19;169887.47;;;17.34;61.30
1776;BME280;885;42.626;23.200;2022-07-12T07:51:46;169933.25;;;17.51;62.12
1776;BME280;885;42.626;23.200;2022-07-12T07:54:14;169985.94;;;17.70;62.72
1776;BME280;885;42.626;23.200;2022-07-12T07:56:40;170069.16;;;18.00;61.63
1776;BME280;885;42.626;23.200;2022-07-12T07:59:07;170119.06;;;18.18;58.46
1776;BME280;885;42.626;23.200;2022-07-12T08:01:35;170175.91;;;18.39;58.07
1776;BME280;885;42.626;23.200;2022-07-12T08:04:10;170174.56;;;18.39;59.78
1776;BME280;885;42.626;23.200;2022-07-12T08:06:38;170182.84;;;18.42;62.95
1776;BME280;885;42.626;23.200;2022-07-12T08:09:05;170078.84;;;18.04;64.12
1776;BME280;885;42.626;23.200;2022-07-12T08:11:32;170103.81;;;18.13;64.33
1776;BME280;885;42.626;23.200;2022-07-12T08:13:59;170105.22;;;18.13;59.62
1776;BME280;885;42.626;23.200;2022-07-12T08:16:26;170012.31;;;17.80;54.55
1776;BME280;885;42.626;23.200;2022-07-12T08:18:54;170067.75;;;18.00;57.14
1776;BME280;885;42.626;23.200;2022-07-12T08:21:21;170091.31;;;18.08;60.65
1776;BME280;885;42.626;23.200;2022-07-12T08:23:48;170130.16;;;18.22;62.39
1776;BME280;885;42.626;23.200;2022-07-12T08:26:15;170195.41;;;18.46;60.45
1776;BME280;885;42.626;23.200;2022-07-12T08:28:42;170200.94;;;18.48;54.23
1776;BME280;885;42.626;23.200;2022-07-12T08:31:09;170220.38;;;18.55;51.80
1776;BME280;885;42.626;23.200;2022-07-12T08:33:38;170225.94;;;18.57;57.07
1776;BME280;885;42.626;23.200;2022-07-12T08:36:07;170178.72;;;18.40;54.58
1776;BME280;885;42.626;23.200;2022-07-12T08:38:34;170209.28;;;18.51;53.83
1776;BME280;885;42.626;23.200;2022-07-12T08:41:03;170220.38;;;18.55;53.52
1776;BME280;885;42.626;23.200;2022-07-12T08:43:31;170303.59;;;18.85;54.78
1776;BME280;885;42.626;23.200;2022-07-12T08:46:03;170311.94;;;18.88;50.89
1776;BME280;885;42.626;23.200;2022-07-12T08:48:30;170131.53;;;18.23;50.12
1776;BME280;885;42.626;23.200;2022-07-12T08:51:00;170200.94;;;18.48;51.66
1776;BME280;885;42.626;23.200;2022-07-12T08:53:29;170109.34;;;18.15;52.35
1776;BME280;885;42.626;23.200;2022-07-12T08:55:56;170206.50;;;18.50;52.35
1776;BME280;885;42.626;23.200;2022-07-12T08:58:23;170273.09;;;18.74;54.95
1776;BME280;885;42.626;23.200;2022-07-12T09:00:51;170314.69;;;18.89;53.45
1776;BME280;885;42.626;23.200;2022-07-12T09:03:19;170309.13;;;18.87;50.57
1776;BME280;885;42.626;23.200;2022-07-12T09:05:51;170336.94;;;18.97;54.30
1776;BME280;885;42.626;23.200;2022-07-12T09:08:23;170366.06;;;19.08;53.39
1776;BME280;885;42.626;23.200;2022-07-12T09:10:54;170403.50;;;19.22;58.00
1776;BME280;885;42.626;23.200;2022-07-12T09:16:12;170328.56;;;18.94;50.41
1776;BME280;885;42.626;23.200;2022-07-12T09:18:39;170418.75;;;19.27;51.18
1776;BME280;885;42.626;23.200;2022-07-12T09:21:06;170492.41;;;19.54;49.89
1776;BME280;885;42.626;23.200;2022-07-12T09:23:33;170502.09;;;19.57;49.22
1776;BME280;885;42.626;23.200;2022-07-12T09:26:07;170484.06;;;19.51;45.39
1776;BME280;885;42.626;23.200;2022-07-12T09:28:34;170506.25;;;19.59;46.55
1776;BME280;885;42.626;23.200;2022-07-12T09:31:02;170618.72;;;20.00;49.67
1776;BME280;885;42.626;23.200;2022-07-12T09:33:28;170713.16;;;20.34;50.29
1776;BME280;885;42.626;23.200;2022-07-12T09:36:12;170770.16;;;20.54;48.53
1776;BME280;885;42.626;23.200;2022-07-12T09:38:48;170804.88;;;20.67;47.49
1776;BME280;885;42.626;23.200;2022-07-12T09:41:18;170792.38;;;20.63;49.81
1776;BME280;885;42.626;23.200;2022-07-12T09:43:45;170768.75;;;20.54;50.49
1776;BME280;885;42.626;23.200;2022-07-12T09:46:13;170731.22;;;20.40;48.66
1776;BME280;885;42.626;23.200;2022-07-12T09:48:40;170761.81;;;20.51;47.41
1776;BME280;885;42.626;23.200;2022-07-12T09:51:08;170810.44;;;20.69;46.42
1776;BME280;885;42.626;23.200;2022-07-12T09:53:38;170916.03;;;21.07;48.34
1776;BME280;885;42.626;23.200;2022-07-12T09:56:10;170942.47;;;21.17;44.12
1776;BME280;885;42.626;23.200;2022-07-12T09:58:45;170967.50;;;21.26;46.76
1776;BME280;885;42.626;23.200;2022-07-12T10:01:15;170911.88;;;21.06;44.39
1776;BME280;885;42.626;23.200;2022-07-12T10:03:43;170971.66;;;21.27;41.33
1776;BME280;885;42.626;23.200;2022-07-12T10:06:12;171009.16;;;21.41;41.38
1776;BME280;885;42.626;23.200;2022-07-12T10:08:39;171048.09;;;21.55;39.63
1776;BME280;885;42.626;23.200;2022-07-12T10:11:06;171118.94;;;21.81;41.82
1776;BME280;885;42.626;23.200;2022-07-12T10:13:34;171159.31;;;21.95;39.42
1776;BME280;885;42.626;23.200;2022-07-12T10:16:04;171181.59;;;22.03;39.23
1776;BME280;885;42.626;23.200;2022-07-12T10:18:31;171224.69;;;22.19;40.60
1776;BME280;885;42.626;23.200;2022-07-12T10:20:58;171234.38;;;22.23;40.88
1776;BME280;885;42.626;23.200;2022-07-12T10:23:30;171262.25;;;22.33;39.75
1776;BME280;885;42.626;23.200;2022-07-12T10:26:00;171310.88;;;22.50;42.79
1776;BME280;885;42.626;23.200;2022-07-12T10:28:55;171405.53;;;22.84;42.56
1776;BME280;885;42.626;23.200;2022-07-12T10:31:27;171397.16;;;22.81;42.44
1776;BME280;885;42.626;23.200;2022-07-12T10:34:13;171418.06;;;22.89;41.26
1776;BME280;885;42.626;23.200;2022-07-12T10:37:08;171434.75;;;22.95;39.95
1776;BME280;885;42.626;23.200;2022-07-12T10:39:35;171450.03;;;23.01;40.70
1776;BME280;885;42.626;23.200;2022-07-12T10:42:16;171377.72;;;22.74;40.90
1776;BME280;885;42.626;23.200;2022-07-12T10:44:45;171347.13;;;22.63;39.20
1776;BME280;885;42.626;23.200;2022-07-12T10:47:15;171223.28;;;22.19;41.26
1776;BME280;885;42.626;23.200;2022-07-12T10:49:48;171223.28;;;22.19;39.56
1776;BME280;885;42.626;23.200;2022-07-12T10:52:16;171212.16;;;22.14;40.26
1776;BME280;885;42.626;23.200;2022-07-12T10:54:47;171280.28;;;22.39;43.70
1776;BME280;885;42.626;23.200;2022-07-12T10:57:38;171292.81;;;22.44;43.48
1776;BME280;885;42.626;23.200;2022-07-12T11:00:06;171315.03;;;22.52;41.65
1776;BME280;885;42.626;23.200;2022-07-12T11:02:35;171246.91;;;22.27;41.66
1776;BME280;885;42.626;23.200;2022-07-12T11:05:05;171224.69;;;22.19;41.66
1776;BME280;885;42.626;23.200;2022-07-12T11:07:33;171192.72;;;22.07;39.91
1776;BME280;885;42.626;23.200;2022-07-12T11:10:00;171159.31;;;21.95;40.66
1776;BME280;885;42.626;23.200;2022-07-12T11:12:27;171201.03;;;22.10;40.13
1776;BME280;885;42.626;23.200;2022-07-12T11:14:55;171220.53;;;22.18;42.22
1776;BME280;885;42.626;23.200;2022-07-12T11:17:25;171085.59;;;21.69;41.57
1776;BME280;885;42.626;23.200;2022-07-12T11:20:08;170995.28;;;21.36;42.29
1776;BME280;885;42.626;23.200;2022-07-12T11:22:37;171042.53;;;21.53;43.27
1776;BME280;885;42.626;23.200;2022-07-12T11:25:06;170957.72;;;21.22;42.72
1776;BME280;885;42.626;23.200;2022-07-12T11:27:34;171068.94;;;21.63;42.69
1776;BME280;885;42.626;23.200;2022-07-12T11:30:02;171092.56;;;21.71;45.44
1776;BME280;885;42.626;23.200;2022-07-12T11:32:37;171125.97;;;21.83;46.10
1776;BME280;885;42.626;23.200;2022-07-12T11:35:17;171273.38;;;22.37;45.36
1776;BME280;885;42.626;23.200;2022-07-12T11:37:48;171415.25;;;22.88;44.52
1776;BME280;885;42.626;23.200;2022-07-12T11:40:21;171525.16;;;23.28;45.45
1776;BME280;885;42.626;23.200;2022-07-12T11:42:55;171504.31;;;23.20;44.00
1776;BME280;885;42.626;23.200;2022-07-12T11:45:24;171388.84;;;22.78;43.64
1776;BME280;885;42.626;23.200;2022-07-12T11:47:51;171399.97;;;22.82;44.00
1776;BME280;885;42.626;23.200;2022-07-12T11:50:20;171438.91;;;22.97;43.07
1776;BME280;885;42.626;23.200;2022-07-12T11:52:47;171401.38;;;22.83;42.00
1776;BME280;885;42.626;23.200;2022-07-12T11:55:14;171361.03;;;22.68;43.81
1776;BME280;885;42.626;23.200;2022-07-12T11:57:41;171298.38;;;22.46;44.87
1776;BME280;885;42.626;23.200;2022-07-12T12:00:16;171242.75;;;22.26;46.66
1776;BME280;885;42.626;23.200;2022-07-12T12:02:43;171263.59;;;22.33;46.48
1776;BME280;885;42.626;23.200;2022-07-12T12:05:10;171362.38;;;22.69;47.27
1776;BME280;885;42.626;23.200;2022-07-12T12:07:39;171451.44;;;23.01;44.62
1776;BME280;885;42.626;23.200;2022-07-12T12:10:10;171565.56;;;23.42;45.15
1776;BME280;885;42.626;23.200;2022-07-12T12:12:41;171600.34;;;23.55;44.22
1776;BME280;885;42.626;23.200;2022-07-12T12:15:09;171656.06;;;23.75;44.45
1776;BME280;885;42.626;23.200;2022-07-12T12:17:41;171690.84;;;23.88;43.87
1776;BME280;885;42.626;23.200;2022-07-12T12:20:11;171596.19;;;23.53;42.06
1776;BME280;885;42.626;23.200;2022-07-12T12:22:39;171525.16;;;23.28;43.49
1776;BME280;885;42.626;23.200;2022-07-12T12:25:06;171387.44;;;22.78;44.35
1776;BME280;885;42.626;23.200;2022-07-12T12:27:45;171297.00;;;22.45;44.03
1776;BME280;885;42.626;23.200;2022-07-12T12:30:13;171342.94;;;22.62;45.81
1776;BME280;885;42.626;23.200;2022-07-12T12:32:47;171423.63;;;22.91;42.38
1776;BME280;885;42.626;23.200;2022-07-12T12:35:16;171495.94;;;23.17;44.13
1776;BME280;885;42.626;23.200;2022-07-12T12:37:52;171359.63;;;22.68;42.96
1776;BME280;885;42.626;23.200;2022-07-12T12:40:20;171415.25;;;22.88;44.48
1776;BME280;885;42.626;23.200;2022-07-12T12:42:47;171514.03;;;23.24;45.69
1776;BME280;885;42.626;23.200;2022-07-12T12:45:22;171515.44;;;23.24;42.89
1776;BME280;885;42.626;23.200;2022-07-12T12:47:56;171561.41;;;23.41;44.30
1776;BME280;885;42.626;23.200;2022-07-12T12:50:42;171580.91;;;23.48;47.35
1776;BME280;885;42.626;23.200;2022-07-12T12:53:14;171493.19;;;23.16;47.23
1776;BME280;885;42.626;23.200;2022-07-12T12:55:43;171374.91;;;22.73;48.18
1776;BME280;885;42.626;23.200;2022-07-12T12:58:11;171284.50;;;22.41;49.18
1776;BME280;885;42.626;23.200;2022-07-12T13:00:39;170875.69;;;20.93;47.19
1776;BME280;885;42.626;23.200;2022-07-12T13:03:07;171006.41;;;21.40;46.62
1776;BME280;885;42.626;23.200;2022-07-12T13:05:34;171070.31;;;21.63;47.04
1776;BME280;885;42.626;23.200;2022-07-12T13:08:02;171162.13;;;21.96;46.58
1776;BME280;885;42.626;23.200;2022-07-12T13:10:31;171226.06;;;22.20;46.24
1776;BME280;885;42.626;23.200;2022-07-12T13:12:59;171281.69;;;22.40;44.98
1776;BME280;885;42.626;23.200;2022-07-12T13:15:26;171270.56;;;22.36;46.03
1776;BME280;885;42.626;23.200;2022-07-12T13:17:54;171269.16;;;22.35;47.62
1776;BME280;885;42.626;23.200;2022-07-12T13:20:42;171265.00;;;22.34;45.80
1776;BME280;885;42.626;23.200;2022-07-12T13:23:08;171224.69;;;22.19;44.18